Flight Track Log - Related Links

Times and Time Zones

All times are in EDT time to prevent confusion due to time zone crossing. See the CTL78 flight status page for this flight to view local times or setup timezone preferences in your user account.

Time Position Orientation Groundspeed Altitude Reporting Facility
EDT Latitude Longitude Course Direction KTS MPH feet Rate Location/Type
Fri 03:55:24 PM 42.6622 -83.4492 268° West 121 139 1,600  Level Cleveland Center
Fri 03:55:55 PM 42.6614 -83.4772 268° West 132 152 2,100 968 Climbing Cleveland Center
Fri 03:57:00 PM 42.6913 -83.4451 38° Northeast  Level FlightAware
Fri 04:04:00 PM 42.9244 -83.3935 321° Northwest  Level FlightAware
Fri 04:05:00 PM 42.9518 -83.4236 321° Northwest  Level FlightAware
Fri 04:06:00 PM 42.9792 -83.4538 321° Northwest  Level FlightAware
Fri 04:07:00 PM 43.0066 -83.4840 321° Northwest  Level FlightAware
Fri 04:08:00 PM 43.0340 -83.5142 321° Northwest  Level FlightAware
Fri 04:09:00 PM 43.0614 -83.5444 321° Northwest  Level FlightAware
Fri 04:10:00 PM 43.0887 -83.5747 321° Northwest  Level FlightAware
Fri 04:11:00 PM 43.1161 -83.6050 321° Northwest  Level FlightAware
Fri 04:12:00 PM 43.1435 -83.6353 321° Northwest  Level FlightAware
Fri 04:13:00 PM 43.1708 -83.6657 321° Northwest  Level FlightAware
Fri 04:14:00 PM 43.1981 -83.6961 321° Northwest  Level FlightAware
Fri 04:15:00 PM 43.2251 -83.7270 318° Northwest  Level FlightAware
Fri 04:16:00 PM 43.2514 -83.7590 318° Northwest  Level FlightAware
Fri 04:17:00 PM 43.2777 -83.7912 318° Northwest  Level FlightAware
Fri 04:18:00 PM 43.3040 -83.8233 318° Northwest  Level FlightAware
Fri 04:19:00 PM 43.3303 -83.8554 318° Northwest  Level FlightAware
Fri 04:20:00 PM 43.3566 -83.8876 318° Northwest  Level FlightAware
Fri 04:21:00 PM 43.3842 -83.9175 324° Northwest  Level FlightAware
Fri 04:22:00 PM 43.4127 -83.9459 324° Northwest  Level FlightAware
Fri 04:23:00 PM 43.4411 -83.9744 324° Northwest  Level FlightAware
Fri 04:24:00 PM 43.4696 -84.0029 324° Northwest  Level FlightAware
Fri 04:25:00 PM 43.4980 -84.0314 324° Northwest  Level FlightAware
Fri 04:26:00 PM 43.5167 -84.0667 305° West  Level FlightAware

Login

Don't have an account? Register now (free) for customized features, flight alerts, and more!